Station Historical Data
Daily Summary for January 10, 2012 Units:  Metric    English   Both
« Previous Day
Next Day »
Daily Weekly Monthly Yearly Custom
  High: Low: Average:
Temperature: 13.6 °C 8.6 °C 10.9 °C
Dew Point: 13 °C 7.1 °C 10 °C
Humidity: 97% 88% 94%
Wind Speed: 19.3km/h 0km/h 7.7km/h
Wind Gust: 27.4km/h - -
Wind- - ENE
Pressure: 1018.8 hPa 1005.6 hPa -
Precipitation: 7.87 mm    
Historical Graphs
 
 
Tabular Data for January 10, 2012
Time Temperature Dew Point Pressure Wind Wind Speed Wind Gust Humidity Rainfall Rate (Hourly) Conditions
00:00 9.7 °C 9.3 °C 1018.5 hPa Calm     97% 0 mm
00:01 9.7 °C 9.3 °C 1018.5 hPa Calm     97% 0 mm
00:06 9.7 °C 9.3 °C 1018.8 hPa Calm     97% 0 mm
00:11 9.7 °C 9.3 °C 1018.5 hPa South 3.2 km/h 3.2 km/h 97% 0 mm
00:16 9.7 °C 9.2 °C 1018.5 hPa SSE 6.4 km/h 6.4 km/h 97% 0 mm
00:21 9.8 °C 9.3 °C 1018.2 hPa SE 4.8 km/h 4.8 km/h 97% 0 mm
00:26 9.8 °C 9.3 °C 1018.5 hPa Calm   3.2 km/h 97% 0 mm
00:31 9.7 °C 9.3 °C 1018.2 hPa Calm   1.6 km/h 97% 0 mm
00:36 9.7 °C 9.2 °C 1018.2 hPa ESE 1.6 km/h 1.6 km/h 97% 0 mm
00:41 9.6 °C 9.2 °C 1018.2 hPa ESE 1.6 km/h 1.6 km/h 97% 0 mm
00:46 9.6 °C 9.2 °C 1018.2 hPa Calm     97% 0 mm
00:51 9.6 °C 9.2 °C 1018.2 hPa Calm     97% 0 mm
00:56 9.6 °C 9.2 °C 1018.2 hPa ESE 1.6 km/h 3.2 km/h 97% 0 mm
01:01 9.6 °C 9.2 °C 1018.2 hPa Calm     97% 0 mm
01:06 9.6 °C 9.2 °C 1018.2 hPa Calm     97% 0 mm
01:11 9.7 °C 9.3 °C 1018.2 hPa NNE 3.2 km/h 3.2 km/h 97% 0 mm
01:16 9.7 °C 9.2 °C 1018.2 hPa North 1.6 km/h 3.2 km/h 97% 0 mm
01:21 9.7 °C 9.2 °C 1018.2 hPa NNE 4.8 km/h 4.8 km/h 97% 0 mm
01:26 9.7 °C 9.2 °C 1018.2 hPa North 1.6 km/h 3.2 km/h 97% 0 mm
01:31 9.7 °C 9.2 °C 1018.2 hPa NNE 6.4 km/h 6.4 km/h 97% 0 mm
01:36 9.7 °C 9.3 °C 1018.2 hPa NNE 6.4 km/h 6.4 km/h 97% 0 mm
01:41 9.7 °C 9.3 °C 1017.8 hPa NNE 6.4 km/h 8 km/h 97% 0 mm
01:46 9.7 °C 9.3 °C 1017.8 hPa NNE 8 km/h 9.7 km/h 97% 0 mm
01:51 9.7 °C 9.3 °C 1017.8 hPa NE 4.8 km/h 9.7 km/h 97% 0 mm
01:56 9.7 °C 9.3 °C 1017.8 hPa NE 3.2 km/h 6.4 km/h 97% 0 mm
02:01 9.7 °C 9.3 °C 1018.2 hPa ENE 1.6 km/h 3.2 km/h 97% 0 mm
02:06 9.7 °C 9.3 °C 1018.2 hPa ENE 1.6 km/h 1.6 km/h 97% 0 mm
02:11 9.7 °C 9.3 °C 1018.2 hPa NNE 1.6 km/h 3.2 km/h 97% 0 mm
02:16 9.7 °C 9.3 °C 1018.2 hPa NNW 1.6 km/h 1.6 km/h 97% 0 mm
02:21 9.7 °C 9.3 °C 1018.2 hPa NNE 3.2 km/h 6.4 km/h 97% 0 mm
02:26 9.7 °C 9.3 °C 1017.8 hPa NE 6.4 km/h 6.4 km/h 97% 0 mm
02:32 9.7 °C 9.2 °C 1017.8 hPa NE 6.4 km/h 8 km/h 97% 0 mm
02:37 9.7 °C 9.2 °C 1017.8 hPa NE 8 km/h 11.3 km/h 97% 0 mm
02:42 9.7 °C 9.2 °C 1017.8 hPa NE 12.9 km/h 12.9 km/h 97% 0 mm
02:47 9.6 °C 9.2 °C 1017.8 hPa NNW 4.8 km/h 8 km/h 97% 0 mm
02:52 9.7 °C 9.2 °C 1018.2 hPa North 9.7 km/h 9.7 km/h 97% 0 mm
02:57 9.7 °C 9.2 °C 1018.5 hPa North 4.8 km/h 9.7 km/h 97% 0 mm
03:02 9.7 °C 9.2 °C 1018.2 hPa North 11.3 km/h 12.9 km/h 97% 0 mm
03:07 9.7 °C 9.2 °C 1018.2 hPa North 4.8 km/h 9.7 km/h 97% 0 mm
03:12 9.6 °C 9.2 °C 1018.2 hPa NNE 11.3 km/h 14.5 km/h 97% 0 mm
03:17 9.6 °C 9.2 °C 1018.2 hPa NNE 6.4 km/h 9.7 km/h 97% 0 mm
03:22 9.6 °C 9.2 °C 1018.2 hPa NNE 8 km/h 14.5 km/h 97% 0 mm
03:27 9.6 °C 9.2 °C 1018.2 hPa NE 11.3 km/h 12.9 km/h 97% 0 mm
03:32 9.6 °C 9.1 °C 1017.8 hPa NNE 9.7 km/h 9.7 km/h 97% 0 mm
03:37 9.6 °C 9.1 °C 1017.8 hPa NE 11.3 km/h 12.9 km/h 97% 0 mm
03:42 9.6 °C 9.1 °C 1017.8 hPa NE 9.7 km/h 11.3 km/h 97% 0 mm
03:47 9.5 °C 9.1 °C 1017.8 hPa NNE 6.4 km/h 14.5 km/h 97% 0 mm
03:52 9.5 °C 9.1 °C 1017.8 hPa NE 6.4 km/h 14.5 km/h 97% 0 mm
03:57 9.5 °C 9.1 °C 1017.8 hPa NE 3.2 km/h 9.7 km/h 97% 0 mm
04:02 9.5 °C 9.1 °C 1017.8 hPa NE 6.4 km/h 8 km/h 97% 0 mm
04:07 9.5 °C 9.1 °C 1017.8 hPa NNE 6.4 km/h 11.3 km/h 97% 0 mm
04:12 9.5 °C 9.1 °C 1017.8 hPa NE 4.8 km/h 9.7 km/h 97% 0 mm
04:17 9.5 °C 9.1 °C 1017.8 hPa NE 8 km/h 11.3 km/h 97% 0 mm
04:22 9.4 °C 9 °C 1017.8 hPa NE 3.2 km/h 9.7 km/h 97% 0 mm
04:27 9.4 °C 8.9 °C 1017.5 hPa NNE 8 km/h 11.3 km/h 97% 0 mm
04:32 9.4 °C 8.9 °C 1017.8 hPa NNE 3.2 km/h 9.7 km/h 97% 0 mm
04:37 9.3 °C 8.9 °C 1017.5 hPa NE 3.2 km/h 9.7 km/h 97% 0 mm
04:42 9.3 °C 8.9 °C 1017.5 hPa NNE 8 km/h 9.7 km/h 97% 0 mm
04:47 9.3 °C 8.8 °C 1017.5 hPa NE 6.4 km/h 9.7 km/h 97% 0 mm
04:52 9.3 °C 8.8 °C 1017.5 hPa NE 9.7 km/h 11.3 km/h 97% 0 mm
04:57 9.2 °C 8.8 °C 1017.5 hPa NE 6.4 km/h 11.3 km/h 97% 0 mm
05:02 9.2 °C 8.6 °C 1017.2 hPa NNE 11.3 km/h 12.9 km/h 96% 0 mm
05:07 9.2 °C 8.6 °C 1017.2 hPa NNE 8 km/h 14.5 km/h 96% 0 mm
05:12 9.2 °C 8.6 °C 1017.2 hPa NNE 6.4 km/h 11.3 km/h 96% 0 mm
05:17 9.1 °C 8.5 °C 1017.2 hPa NNE 6.4 km/h 12.9 km/h 96% 0 mm
05:22 9.1 °C 8.5 °C 1017.2 hPa NNE 8 km/h 12.9 km/h 96% 0 mm
05:27 9.1 °C 8.3 °C 1017.2 hPa NNE 9.7 km/h 12.9 km/h 95% 0 mm
05:32 9 °C 8.2 °C 1017.2 hPa NNE 9.7 km/h 12.9 km/h 95% 0 mm
05:37 9 °C 8.2 °C 1017.2 hPa NE 9.7 km/h 12.9 km/h 95% 0 mm
05:42 9 °C 8.1 °C 1017.2 hPa NE 9.7 km/h 14.5 km/h 94% 0 mm
05:47 8.9 °C 8.1 °C 1016.8 hPa NNE 8 km/h 12.9 km/h 94% 0 mm
05:52 8.9 °C 8.1 °C 1016.8 hPa NE 8 km/h 16.1 km/h 94% 0 mm
05:58 8.9 °C 8.1 °C 1017.2 hPa NNE 4.8 km/h 11.3 km/h 94% 0 mm
06:03 8.9 °C 8.1 °C 1016.8 hPa NE 8 km/h 11.3 km/h 94% 0 mm
06:07 8.9 °C 8.1 °C 1016.8 hPa NE 8 km/h 9.7 km/h 94% 0 mm
06:12 8.9 °C 8.1 °C 1017.2 hPa NE 6.4 km/h 12.9 km/h 94% 0 mm
06:18 8.9 °C 8 °C 1017.2 hPa NE 6.4 km/h 11.3 km/h 94% 0 mm
06:23 8.9 °C 8 °C 1017.2 hPa NNE 8 km/h 11.3 km/h 94% 0 mm
06:28 8.9 °C 7.8 °C 1017.2 hPa NE 9.7 km/h 12.9 km/h 93% 0 mm
06:33 8.9 °C 7.8 °C 1017.2 hPa NE 14.5 km/h 14.5 km/h 93% 0 mm
06:38 8.9 °C 7.8 °C 1017.2 hPa NNE 8 km/h 11.3 km/h 93% 0 mm
06:43 8.9 °C 7.8 °C 1017.2 hPa NE 6.4 km/h 9.7 km/h 93% 0 mm
06:48 8.9 °C 7.7 °C 1017.2 hPa NE 6.4 km/h 12.9 km/h 92% 0 mm
06:53 8.9 °C 7.7 °C 1017.2 hPa NE 8 km/h 14.5 km/h 92% 0 mm
06:58 8.9 °C 7.5 °C 1016.8 hPa NE 11.3 km/h 16.1 km/h 91% 0 mm
07:03 8.8 °C 7.4 °C 1016.8 hPa NE 8 km/h 12.9 km/h 91% 0 mm
07:08 8.8 °C 7.4 °C 1016.8 hPa NE 8 km/h 17.7 km/h 91% 0 mm
07:13 8.8 °C 7.4 °C 1016.5 hPa NE 11.3 km/h 16.1 km/h 91% 0 mm
07:18 8.8 °C 7.3 °C 1016.8 hPa NNE 8 km/h 17.7 km/h 90% 0 mm
07:23 8.8 °C 7.2 °C 1016.8 hPa NE 8 km/h 17.7 km/h 90% 0 mm
07:28 8.8 °C 7.2 °C 1016.8 hPa NE 8 km/h 14.5 km/h 90% 0 mm
07:33 8.7 °C 7.2 °C 1017.2 hPa NE 12.9 km/h 12.9 km/h 90% 0 mm
07:38 8.7 °C 7.2 °C 1017.2 hPa NE 9.7 km/h 12.9 km/h 90% 0 mm
07:43 8.7 °C 7.2 °C 1016.8 hPa NE 9.7 km/h 14.5 km/h 90% 0 mm
07:48 8.7 °C 7.2 °C 1017.2 hPa NE 4.8 km/h 9.7 km/h 90% 0 mm
07:53 8.7 °C 7.1 °C 1017.2 hPa NNE 6.4 km/h 12.9 km/h 90% 0 mm
07:58 8.7 °C 7.1 °C 1017.2 hPa North 11.3 km/h 11.3 km/h 90% 0 mm
08:03 8.7 °C 7.1 °C 1017.2 hPa NNE 6.4 km/h 11.3 km/h 90% 0 mm
08:08 8.6 °C 7.1 °C 1017.2 hPa NNE 6.4 km/h 12.9 km/h 90% 0 mm
08:13 8.7 °C 7.1 °C 1017.2 hPa NE 8 km/h 8 km/h 90% 0 mm
08:18 8.6 °C 7.1 °C 1017.2 hPa NE 6.4 km/h 6.4 km/h 90% 0 mm
08:23 8.7 °C 7.1 °C 1017.5 hPa NE 6.4 km/h 12.9 km/h 90% 0 mm
08:28 8.7 °C 7.1 °C 1017.2 hPa NE 3.2 km/h 9.7 km/h 90% 0 mm
08:33 8.7 °C 7.1 °C 1017.5 hPa NNE 8 km/h 11.3 km/h 90% 0 mm
08:38 8.7 °C 7.2 °C 1017.2 hPa North 4.8 km/h 11.3 km/h 90% 0 mm
08:43 8.7 °C 7.2 °C 1016.8 hPa NNE 9.7 km/h 14.5 km/h 90% 0 mm
08:48 8.7 °C 7.2 °C 1016.8 hPa NNE 11.3 km/h 11.3 km/h 90% 0 mm
08:53 8.7 °C 7.2 °C 1017.2 hPa North 8 km/h 11.3 km/h 90% 0 mm
08:58 8.8 °C 7.2 °C 1016.8 hPa NNE 9.7 km/h 9.7 km/h 90% 0 mm
09:03 8.8 °C 7.3 °C 1017.2 hPa NE 9.7 km/h 11.3 km/h 90% 0 mm
09:08 8.9 °C 7.5 °C 1016.8 hPa ENE 11.3 km/h 12.9 km/h 91% 0 mm
09:13 8.9 °C 7.4 °C 1017.2 hPa NE 8 km/h 14.5 km/h 90% 0 mm
09:19 9 °C 7.4 °C 1017.2 hPa North 6.4 km/h 11.3 km/h 90% 0 mm
09:24 9 °C 7.4 °C 1017.2 hPa NE 8 km/h 14.5 km/h 90% 0 mm
09:29 9.1 °C 7.5 °C 1017.2 hPa NNE 4.8 km/h 14.5 km/h 90% 0 mm
09:34 9.1 °C 7.5 °C 1016.8 hPa NNE 12.9 km/h 12.9 km/h 90% 0 mm
09:39 9.1 °C 7.6 °C 1016.8 hPa NNE 6.4 km/h 11.3 km/h 90% 0 mm
09:44 9.1 °C 7.6 °C 1016.5 hPa North 4.8 km/h 11.3 km/h 90% 0 mm
09:49 9.2 °C 7.7 °C 1016.5 hPa NE 9.7 km/h 14.5 km/h 90% 0 mm
09:54 9.3 °C 7.7 °C 1016.8 hPa NE 6.4 km/h 9.7 km/h 90% 0 mm
09:59 9.4 °C 7.7 °C 1016.8 hPa NNE 8 km/h 11.3 km/h 89% 0 mm
10:04 9.5 °C 7.8 °C 1016.8 hPa NE 11.3 km/h 14.5 km/h 89% 0 mm
10:09 9.6 °C 7.8 °C 1016.8 hPa NE 4.8 km/h 9.7 km/h 89% 0 mm
10:14 9.6 °C 7.9 °C 1016.8 hPa NE 6.4 km/h 9.7 km/h 89% 0 mm
10:19 9.6 °C 7.9 °C 1016.8 hPa NE 8 km/h 14.5 km/h 89% 0 mm
10:24 9.7 °C 7.9 °C 1016.8 hPa NE 4.8 km/h 14.5 km/h 89% 0 mm
10:29 9.7 °C 8 °C 1016.8 hPa NE 9.7 km/h 12.9 km/h 89% 0 mm
10:34 9.7 °C 8 °C 1016.8 hPa ENE 9.7 km/h 11.3 km/h 89% 0 mm
10:39 9.8 °C 8.1 °C 1016.8 hPa NE 3.2 km/h 11.3 km/h 89% 0 mm
10:44 9.8 °C 7.9 °C 1016.8 hPa NE 9.7 km/h 12.9 km/h 88% 0 mm
10:49 9.8 °C 8.1 °C 1016.5 hPa ENE 8 km/h 12.9 km/h 89% 0 mm
10:54 9.8 °C 8.1 °C 1016.5 hPa ENE 9.7 km/h 11.3 km/h 89% 0 mm
10:59 9.9 °C 8.2 °C 1016.8 hPa NNE 3.2 km/h 9.7 km/h 89% 0 mm
11:04 10 °C 8.3 °C 1016.8 hPa ENE 9.7 km/h 11.3 km/h 89% 0 mm
11:09 10.1 °C 8.3 °C 1016.5 hPa NE 4.8 km/h 9.7 km/h 89% 0 mm
11:14 10.1 °C 8.4 °C 1016.8 hPa NE 9.7 km/h 9.7 km/h 89% 0 mm
11:19 10.1 °C 8.4 °C 1016.8 hPa NE 6.4 km/h 11.3 km/h 89% 0 mm
11:24 10.2 °C 8.3 °C 1016.5 hPa NE 9.7 km/h 12.9 km/h 88% 0 mm
11:29 10.2 °C 8.3 °C 1016.5 hPa ESE 6.4 km/h 12.9 km/h 88% 0 mm
11:34 10.3 °C 8.6 °C 1016.1 hPa East 8 km/h 11.3 km/h 89% 0 mm
11:39 10.4 °C 8.7 °C 1016.1 hPa ENE 8 km/h 12.9 km/h 89% 0 mm
11:44 10.4 °C 8.7 °C 1016.1 hPa NE 8 km/h 14.5 km/h 89% 0 mm
11:49 10.4 °C 8.7 °C 1016.5 hPa NNE 8 km/h 11.3 km/h 89% 0 mm
11:54 10.4 °C 8.5 °C 1016.1 hPa NE 9.7 km/h 14.5 km/h 88% 0 mm
11:59 10.4 °C 8.7 °C 1015.8 hPa NE 9.7 km/h 9.7 km/h 89% 0 mm
12:04 10.4 °C 8.7 °C 1015.8 hPa East 4.8 km/h 9.7 km/h 89% 0 mm
12:10 10.4 °C 8.7 °C 1015.5 hPa ENE 1.6 km/h 8 km/h 89% 0 mm
12:14 10.5 °C 8.9 °C 1015.8 hPa ENE 6.4 km/h 8 km/h 90% 0 mm
12:19 10.6 °C 9 °C 1015.5 hPa East 6.4 km/h 12.9 km/h 90% 0 mm
12:25 10.6 °C 9.1 °C 1015.1 hPa East 8 km/h 12.9 km/h 90% 0 mm
12:30 10.7 °C 9.2 °C 1015.1 hPa NE 11.3 km/h 11.3 km/h 90% 0 mm
12:35 10.8 °C 9.3 °C 1015.5 hPa NNE 6.4 km/h 9.7 km/h 90% 0 mm
12:40 10.8 °C 9.3 °C 1015.1 hPa NE 4.8 km/h 9.7 km/h 90% 0 mm
12:45 10.8 °C 9.3 °C 1015.1 hPa NNE 8 km/h 9.7 km/h 90% 0 mm
12:50 10.9 °C 9.3 °C 1015.1 hPa NNE 4.8 km/h 9.7 km/h 90% 0 mm
12:55 10.9 °C 9.3 °C 1014.8 hPa NE 6.4 km/h 12.9 km/h 90% 0 mm
13:00 10.9 °C 9.3 °C 1014.8 hPa NE 4.8 km/h 11.3 km/h 90% 0 mm
13:05 10.9 °C 9.6 °C 1014.4 hPa East 11.3 km/h 11.3 km/h 91% 0 mm
13:10 10.9 °C 9.6 °C 1014.4 hPa East 9.7 km/h 14.5 km/h 91% 0 mm
13:15 11 °C 9.6 °C 1014.1 hPa ESE 8 km/h 12.9 km/h 91% 0 mm
13:21 11 °C 9.7 °C 1014.1 hPa East 8 km/h 14.5 km/h 92% 0 mm
13:26 11 °C 9.7 °C 1013.8 hPa NE 11.3 km/h 14.5 km/h 92% 0 mm
13:31 11.1 °C 9.8 °C 1013.8 hPa East 9.7 km/h 16.1 km/h 92% 0 mm
13:36 11.1 °C 9.8 °C 1013.4 hPa East 8 km/h 17.7 km/h 92% 0 mm
13:41 11.1 °C 9.9 °C 1013.4 hPa East 3.2 km/h 8 km/h 93% 0 mm
13:46 11.1 °C 9.9 °C 1013.4 hPa NE 6.4 km/h 11.3 km/h 93% 0 mm
13:51 11.1 °C 10.1 °C 1013.1 hPa NE 9.7 km/h 9.7 km/h 94% 0 mm
13:56 11 °C 10.1 °C 1013.1 hPa NNE 4.8 km/h 9.7 km/h 94% 0 mm
14:01 11 °C 10.1 °C 1013.1 hPa ENE 8 km/h 11.3 km/h 94% 0 mm
14:06 11 °C 10.1 °C 1013.1 hPa NE 6.4 km/h 11.3 km/h 94% 0 mm
14:11 11.1 °C 10.3 °C 1012.8 hPa NE 6.4 km/h 11.3 km/h 95% 0 mm
14:16 11.1 °C 10.3 °C 1012.8 hPa NNE 4.8 km/h 9.7 km/h 95% 0 mm
14:21 11.1 °C 10.3 °C 1012.4 hPa NE 12.9 km/h 14.5 km/h 95% 0 mm
14:26 11.1 °C 10.3 °C 1012.4 hPa ESE 6.4 km/h 9.7 km/h 95% 0 mm
14:31 11.2 °C 10.6 °C 1012.4 hPa NNE 8 km/h 11.3 km/h 96% 0 mm
14:36 11.3 °C 10.7 °C 1012.1 hPa NE 11.3 km/h 17.7 km/h 96% 0 mm
14:41 11.3 °C 10.7 °C 1012.1 hPa East 9.7 km/h 14.5 km/h 96% 0 mm
14:46 11.4 °C 10.8 °C 1012.1 hPa NE 8 km/h 8 km/h 96% 0 mm
14:51 11.4 °C 10.8 °C 1012.1 hPa NE 8 km/h 9.7 km/h 96% 0 mm
14:56 11.5 °C 10.9 °C 1012.1 hPa ENE 16.1 km/h 16.1 km/h 96% 0 mm
15:01 11.6 °C 10.9 °C 1011.7 hPa NE 6.4 km/h 9.7 km/h 96% 0 mm
15:06 11.7 °C 11.1 °C 1011.7 hPa NNE 4.8 km/h 9.7 km/h 96% 0 mm
15:11 11.7 °C 11.1 °C 1011.7 hPa NE 9.7 km/h 9.7 km/h 96% 0 mm
15:16 11.8 °C 11.2 °C 1011.7 hPa NE 6.4 km/h 12.9 km/h 96% 0 mm
15:21 11.8 °C 11.2 °C 1011.7 hPa NE 4.8 km/h 11.3 km/h 96% 0 mm
15:26 11.8 °C 11.2 °C 1011.4 hPa East 4.8 km/h 9.7 km/h 96% 0 mm
15:31 11.8 °C 11.2 °C 1011.4 hPa East 4.8 km/h 11.3 km/h 96% 0 mm
15:36 11.8 °C 11.2 °C 1011.4 hPa ENE 6.4 km/h 9.7 km/h 96% 0 mm
15:41 11.8 °C 11.2 °C 1011.4 hPa ESE 9.7 km/h 12.9 km/h 96% 0 mm
15:46 11.9 °C 11.3 °C 1011.4 hPa NE 4.8 km/h 11.3 km/h 96% 0 mm
15:51 11.9 °C 11.3 °C 1011.4 hPa NNE 8 km/h 11.3 km/h 96% 0 mm
15:56 11.9 °C 11.3 °C 1011.4 hPa ENE 12.9 km/h 12.9 km/h 96% 0 mm
16:01 12 °C 11.4 °C 1011.1 hPa NE 4.8 km/h 11.3 km/h 96% 0 mm
16:06 12.1 °C 11.4 °C 1011.1 hPa ESE 8 km/h 9.7 km/h 96% 0 mm
16:11 12.1 °C 11.4 °C 1011.1 hPa ENE 6.4 km/h 14.5 km/h 96% 0 mm
16:16 12.1 °C 11.5 °C 1011.1 hPa ESE 4.8 km/h 12.9 km/h 96% 0 mm
16:21 12.1 °C 11.5 °C 1011.1 hPa East 9.7 km/h 12.9 km/h 96% 0 mm
16:26 12.2 °C 11.6 °C 1010.7 hPa East 8 km/h 11.3 km/h 96% 0 mm
16:31 12.3 °C 11.7 °C 1010.7 hPa East 6.4 km/h 12.9 km/h 96% 0 mm
16:37 12.3 °C 11.7 °C 1010.7 hPa NNE 9.7 km/h 11.3 km/h 96% 0 mm
16:42 12.3 °C 11.7 °C 1010.7 hPa ENE 4.8 km/h 9.7 km/h 96% 0 mm
16:47 12.4 °C 11.8 °C 1010.7 hPa East 6.4 km/h 12.9 km/h 96% 0 mm
16:52 12.4 °C 11.8 °C 1010.7 hPa NE 3.2 km/h 14.5 km/h 96% 0 mm
16:57 12.4 °C 11.8 °C 1010.7 hPa NE 6.4 km/h 9.7 km/h 96% 0 mm
17:02 12.5 °C 11.9 °C 1010.7 hPa East 4.8 km/h 9.7 km/h 96% 0 mm
17:07 12.5 °C 11.9 °C 1010.7 hPa ENE 9.7 km/h 11.3 km/h 96% 0 mm
17:12 12.5 °C 11.9 °C 1010.7 hPa East 1.6 km/h 6.4 km/h 96% 0 mm
17:17 12.5 °C 11.9 °C 1010.7 hPa East 1.6 km/h 8 km/h 96% 0 mm
17:22 12.6 °C 11.9 °C 1010.7 hPa ENE 4.8 km/h 9.7 km/h 96% 0 mm
17:27 12.6 °C 11.9 °C 1010.4 hPa ESE 3.2 km/h 6.4 km/h 96% 0 mm
17:32 12.6 °C 11.9 °C 1010.4 hPa East 8 km/h 9.7 km/h 96% 0 mm
17:37 12.6 °C 11.9 °C 1010.4 hPa ENE 1.6 km/h 8 km/h 96% 0 mm
17:42 12.6 °C 11.9 °C 1010.7 hPa ESE 4.8 km/h 6.4 km/h 96% 0 mm
17:47 12.6 °C 12 °C 1010.7 hPa ENE 6.4 km/h 9.7 km/h 96% 0 mm
17:52 12.6 °C 12 °C 1010.7 hPa East 4.8 km/h 8 km/h 96% 0 mm
17:57 12.6 °C 11.9 °C 1010.7 hPa East 4.8 km/h 6.4 km/h 96% 0 mm
18:02 12.6 °C 12 °C 1010.4 hPa East 3.2 km/h 11.3 km/h 96% 0 mm
18:07 12.6 °C 12 °C 1010.4 hPa ENE 6.4 km/h 12.9 km/h 96% 0 mm
18:12 12.6 °C 12 °C 1010.4 hPa East 6.4 km/h 14.5 km/h 96% 0 mm
18:17 12.6 °C 12 °C 1010.4 hPa East 8 km/h 9.7 km/h 96% 0 mm
18:22 12.6 °C 12 °C 1010 hPa ENE 6.4 km/h 12.9 km/h 96% 0 mm
18:27 12.7 °C 12.1 °C 1010 hPa ESE 8 km/h 11.3 km/h 96% 0 mm
18:32 12.7 °C 12.1 °C 1010 hPa East 8 km/h 11.3 km/h 96% 0 mm
18:37 12.7 °C 12.1 °C 1010 hPa NE 11.3 km/h 11.3 km/h 96% 0 mm
18:42 12.7 °C 12.1 °C 1010 hPa East 3.2 km/h 9.7 km/h 96% 0 mm
18:47 12.7 °C 12.1 °C 1009.7 hPa East 8 km/h 12.9 km/h 96% 0 mm
18:52 12.7 °C 12.1 °C 1009.7 hPa East 4.8 km/h 14.5 km/h 96% 0 mm
18:57 12.7 °C 12.1 °C 1009.7 hPa East 9.7 km/h 14.5 km/h 96% 0 mm
19:02 12.8 °C 12.2 °C 1009.4 hPa ENE 6.4 km/h 14.5 km/h 96% 0 mm
19:07 12.8 °C 12.2 °C 1009.7 hPa ESE 9.7 km/h 12.9 km/h 96% 0 mm
19:13 12.8 °C 12.2 °C 1009.4 hPa ENE 9.7 km/h 12.9 km/h 96% 0 mm
19:18 12.8 °C 12.2 °C 1009.4 hPa ENE 9.7 km/h 16.1 km/h 96% 0 mm
19:23 12.8 °C 12.2 °C 1009.4 hPa East 9.7 km/h 14.5 km/h 96% 0 mm
19:28 12.9 °C 12.3 °C 1009.4 hPa East 4.8 km/h 12.9 km/h 96% 0 mm
19:33 12.9 °C 12.3 °C 1009.7 hPa East 11.3 km/h 14.5 km/h 96% 0 mm
19:38 12.9 °C 12.3 °C 1009.4 hPa ESE 9.7 km/h 16.1 km/h 96% 0 mm
19:43 13 °C 12.4 °C 1009.4 hPa East 12.9 km/h 17.7 km/h 96% 0 mm
19:48 13 °C 12.4 °C 1009.4 hPa ESE 14.5 km/h 17.7 km/h 96% 0 mm
19:53 13.1 °C 12.4 °C 1009 hPa ESE 12.9 km/h 17.7 km/h 96% 0 mm
19:58 13.1 °C 12.5 °C 1009 hPa East 14.5 km/h 17.7 km/h 96% 0 mm
20:03 13.2 °C 12.6 °C 1009 hPa ENE 9.7 km/h 14.5 km/h 96% 0 mm
20:08 13.2 °C 12.6 °C 1008.7 hPa East 8 km/h 12.9 km/h 96% 0 mm
20:13 13.2 °C 12.6 °C 1008.7 hPa ESE 14.5 km/h 16.1 km/h 96% 0 mm
20:18 13.2 °C 12.6 °C 1009 hPa ESE 8 km/h 14.5 km/h 96% 0 mm
20:23 13.2 °C 12.6 °C 1009 hPa ESE 9.7 km/h 14.5 km/h 96% 0 mm
20:28 13.3 °C 12.7 °C 1008.7 hPa ESE 14.5 km/h 16.1 km/h 96% 0 mm
20:33 13.2 °C 12.6 °C 1008.7 hPa East 6.4 km/h 12.9 km/h 96% 0 mm
20:38 13.2 °C 12.6 °C 1008.7 hPa ENE 9.7 km/h 11.3 km/h 96% 0 mm
20:43 13.3 °C 12.7 °C 1008.4 hPa ESE 14.5 km/h 16.1 km/h 96% 0 mm
20:48 13.3 °C 12.7 °C 1008.4 hPa East 8 km/h 14.5 km/h 96% 0 mm
20:53 13.3 °C 12.7 °C 1008.4 hPa East 19.3 km/h 19.3 km/h 96% 0 mm
20:58 13.3 °C 12.7 °C 1008 hPa East 12.9 km/h 12.9 km/h 96% 0 mm
21:03 13.3 °C 12.7 °C 1008 hPa East 9.7 km/h 17.7 km/h 96% 0 mm
21:08 13.3 °C 12.7 °C 1008 hPa SE 9.7 km/h 12.9 km/h 96% 0 mm
21:13 13.3 °C 12.7 °C 1008 hPa ESE 9.7 km/h 17.7 km/h 96% 0 mm
21:19 13.3 °C 12.7 °C 1008 hPa SE 12.9 km/h 14.5 km/h 96% 0 mm
21:24 13.3 °C 12.7 °C 1008 hPa ESE 14.5 km/h 16.1 km/h 96% 0 mm
21:29 13.3 °C 12.7 °C 1008 hPa ESE 12.9 km/h 17.7 km/h 96% 2.03 mm
21:34 13.3 °C 12.7 °C 1008 hPa ESE 8 km/h 11.3 km/h 96% 3.05 mm
21:39 13.3 °C 12.7 °C 1007.7 hPa East 11.3 km/h 17.7 km/h 96% 7.62 mm
21:44 13.3 °C 12.7 °C 1007.7 hPa East 11.3 km/h 19.3 km/h 96% 5.08 mm
21:49 13.3 °C 12.7 °C 1007.3 hPa SE 9.7 km/h 14.5 km/h 96% 5.59 mm
21:54 13.3 °C 12.7 °C 1007.7 hPa ESE 11.3 km/h 16.1 km/h 96% 3.3 mm
21:59 13.4 °C 12.8 °C 1007.3 hPa East 12.9 km/h 19.3 km/h 96% 2.29 mm
22:04 13.3 °C 12.7 °C 1007.3 hPa ENE 12.9 km/h 12.9 km/h 96% 2.54 mm
22:09 13.3 °C 12.7 °C 1007.3 hPa ESE 11.3 km/h 16.1 km/h 96% 5.33 mm
22:14 13.4 °C 12.8 °C 1007.3 hPa SE 11.3 km/h 16.1 km/h 96% 4.83 mm
22:19 13.3 °C 12.7 °C 1007.3 hPa ESE 8 km/h 16.1 km/h 96% 6.86 mm
22:24 13.3 °C 12.7 °C 1007.3 hPa SE 8 km/h 12.9 km/h 96% 7.87 mm
22:29 13.4 °C 12.8 °C 1007 hPa ESE 12.9 km/h 17.7 km/h 96% 11.94 mm
22:34 13.4 °C 12.8 °C 1007 hPa SE 12.9 km/h 16.1 km/h 96% 19.05 mm
22:39 13.4 °C 12.8 °C 1007 hPa ESE 9.7 km/h 17.7 km/h 96% 4.06 mm
22:44 13.4 °C 12.8 °C 1006.7 hPa ENE 9.7 km/h 16.1 km/h 96% 2.29 mm
22:49 13.4 °C 12.8 °C 1007 hPa ESE 9.7 km/h 17.7 km/h 96% 1.27 mm
22:54 13.4 °C 12.8 °C 1006.7 hPa East 9.7 km/h 16.1 km/h 96% 1.02 mm
22:59 13.5 °C 12.9 °C 1007 hPa ESE 14.5 km/h 27.4 km/h 96% 1.02 mm
23:04 13.6 °C 12.9 °C 1006.7 hPa SE 14.5 km/h 19.3 km/h 96% 1.02 mm
23:09 13.6 °C 12.9 °C 1006.7 hPa SE 9.7 km/h 14.5 km/h 96% 1.02 mm
23:14 13.5 °C 12.9 °C 1006.7 hPa SE 8 km/h 11.3 km/h 96% 0 mm
23:19 13.6 °C 12.9 °C 1006.7 hPa SE 12.9 km/h 17.7 km/h 96% 0 mm
23:24 13.6 °C 12.9 °C 1006.3 hPa ESE 12.9 km/h 22.5 km/h 96% 0 mm
23:29 13.6 °C 13 °C 1006.3 hPa ESE 12.9 km/h 20.9 km/h 96% 0 mm
23:34 13.6 °C 13 °C 1006.3 hPa ESE 17.7 km/h 19.3 km/h 96% 0 mm
23:39 13.6 °C 13 °C 1006.3 hPa ESE 11.3 km/h 19.3 km/h 96% 0 mm
23:44 13.6 °C 13 °C 1006 hPa ESE 16.1 km/h 19.3 km/h 96% 0 mm
23:49 13.6 °C 13 °C 1006 hPa SE 9.7 km/h 17.7 km/h 96% 0 mm
23:54 13.6 °C 12.9 °C 1006 hPa ESE 12.9 km/h 17.7 km/h 96% 0 mm
23:59 13.6 °C 12.9 °C 1005.6 hPa SE 8 km/h 14.5 km/h 96% 0 mm
Compliments of Weather Underground